sensor_id;sensor_type;location;lat;lon;timestamp;pressure;altitude;pressure_sealevel;temperature;humidity
41312;BME280;27061;41.648;24.568;2023-03-20T00:02:18;86121.69;;;4.73;60.87
41312;BME280;27061;41.648;24.568;2023-03-20T00:04:45;86176.94;;;5.05;60.80
41312;BME280;27061;41.648;24.568;2023-03-20T00:07:12;86107.94;;;4.71;60.84
41312;BME280;27061;41.648;24.568;2023-03-20T00:09:39;86030.44;;;4.06;60.91
41312;BME280;27061;41.648;24.568;2023-03-20T00:12:17;86141.13;;;4.93;61.30
41312;BME280;27061;41.648;24.568;2023-03-20T00:14:47;86153.50;;;4.96;61.17
41312;BME280;27061;41.648;24.568;2023-03-20T00:17:18;86152.06;;;4.91;61.47
41312;BME280;27061;41.648;24.568;2023-03-20T00:19:46;86056.75;;;4.29;60.72
41312;BME280;27061;41.648;24.568;2023-03-20T00:22:13;86100.94;;;4.58;61.29
41312;BME280;27061;41.648;24.568;2023-03-20T00:24:40;86006.94;;;3.87;60.95
41312;BME280;27061;41.648;24.568;2023-03-20T00:27:15;86012.56;;;3.99;60.98
41312;BME280;27061;41.648;24.568;2023-03-20T00:29:43;86147.47;;;5.08;60.53
41312;BME280;27061;41.648;24.568;2023-03-20T00:32:12;86132.81;;;4.85;60.03
41312;BME280;27061;41.648;24.568;2023-03-20T00:34:39;86037.41;;;4.17;60.55
41312;BME280;27061;41.648;24.568;2023-03-20T00:37:08;86138.88;;;4.77;61.45
41312;BME280;27061;41.648;24.568;2023-03-20T00:39:37;86135.47;;;4.79;61.34
41312;BME280;27061;41.648;24.568;2023-03-20T00:42:07;86128.59;;;4.76;60.56
41312;BME280;27061;41.648;24.568;2023-03-20T00:44:52;86116.00;;;4.57;61.20
41312;BME280;27061;41.648;24.568;2023-03-20T00:47:23;86126.44;;;4.68;61.46
41312;BME280;27061;41.648;24.568;2023-03-20T00:49:52;86004.25;;;3.91;61.74
41312;BME280;27061;41.648;24.568;2023-03-20T00:52:20;86129.88;;;4.71;61.80
41312;BME280;27061;41.648;24.568;2023-03-20T00:54:50;86080.00;;;4.26;62.39
41312;BME280;27061;41.648;24.568;2023-03-20T00:57:26;86052.50;;;4.18;62.03
41312;BME280;27061;41.648;24.568;2023-03-20T01:00:02;86117.50;;;4.66;62.74
41312;BME280;27061;41.648;24.568;2023-03-20T01:02:31;85988.44;;;3.87;62.13
41312;BME280;27061;41.648;24.568;2023-03-20T01:04:59;85853.59;;;2.76;61.98
41312;BME280;27061;41.648;24.568;2023-03-20T01:07:27;86049.03;;;4.16;62.13
41312;BME280;27061;41.648;24.568;2023-03-20T01:09:54;86005.63;;;3.92;62.24
41312;BME280;27061;41.648;24.568;2023-03-20T01:12:22;85996.66;;;3.87;62.46
41312;BME280;27061;41.648;24.568;2023-03-20T01:14:54;86091.41;;;4.63;62.99
41312;BME280;27061;41.648;24.568;2023-03-20T01:17:22;85870.28;;;2.94;62.79
41312;BME280;27061;41.648;24.568;2023-03-20T01:19:51;86088.47;;;4.45;62.43
41312;BME280;27061;41.648;24.568;2023-03-20T01:22:18;86086.34;;;4.39;62.01
41312;BME280;27061;41.648;24.568;2023-03-20T01:24:46;85865.47;;;2.93;62.00
41312;BME280;27061;41.648;24.568;2023-03-20T01:27:18;86099.69;;;4.69;61.46
41312;BME280;27061;41.648;24.568;2023-03-20T01:29:45;86095.47;;;4.60;61.51
41312;BME280;27061;41.648;24.568;2023-03-20T01:32:15;86003.56;;;3.92;61.26
41312;BME280;27061;41.648;24.568;2023-03-20T01:34:46;86043.63;;;4.20;61.48
41312;BME280;27061;41.648;24.568;2023-03-20T01:37:22;86000.19;;;3.96;61.29
41312;BME280;27061;41.648;24.568;2023-03-20T01:39:50;85984.81;;;3.73;61.27
41312;BME280;27061;41.648;24.568;2023-03-20T01:42:18;86094.66;;;4.47;61.46
41312;BME280;27061;41.648;24.568;2023-03-20T01:44:45;86089.78;;;4.41;61.49
41312;BME280;27061;41.648;24.568;2023-03-20T01:47:19;85994.63;;;3.88;61.35
41312;BME280;27061;41.648;24.568;2023-03-20T01:53:08;86094.16;;;4.63;60.43
41312;BME280;27061;41.648;24.568;2023-03-20T01:55:42;86108.53;;;4.61;60.85
41312;BME280;27061;41.648;24.568;2023-03-20T01:58:21;86046.50;;;4.32;60.73
41312;BME280;27061;41.648;24.568;2023-03-20T02:00:50;85819.16;;;2.55;60.66
41312;BME280;27061;41.648;24.568;2023-03-20T02:03:19;85997.34;;;3.88;60.81
41312;BME280;27061;41.648;24.568;2023-03-20T02:06:06;85875.66;;;2.88;60.67
41312;BME280;27061;41.648;24.568;2023-03-20T02:08:54;86103.66;;;4.56;61.19
41312;BME280;27061;41.648;24.568;2023-03-20T02:11:24;85977.47;;;3.85;60.57
41312;BME280;27061;41.648;24.568;2023-03-20T02:13:54;85987.69;;;3.83;60.57
41312;BME280;27061;41.648;24.568;2023-03-20T02:16:22;85805.25;;;2.39;60.14
41312;BME280;27061;41.648;24.568;2023-03-20T02:19:16;85812.38;;;2.58;59.61
41312;BME280;27061;41.648;24.568;2023-03-20T02:21:57;86088.59;;;4.55;59.97
41312;BME280;27061;41.648;24.568;2023-03-20T02:24:53;86083.09;;;4.55;59.80
41312;BME280;27061;41.648;24.568;2023-03-20T02:27:39;86088.56;;;4.53;60.04
41312;BME280;27061;41.648;24.568;2023-03-20T02:30:27;86087.84;;;4.50;60.45
41312;BME280;27061;41.648;24.568;2023-03-20T02:44:24;86082.97;;;4.43;60.34
41312;BME280;27061;41.648;24.568;2023-03-20T02:47:06;86075.44;;;4.43;60.33
41312;BME280;27061;41.648;24.568;2023-03-20T02:49:44;86076.13;;;4.46;60.19
41312;BME280;27061;41.648;24.568;2023-03-20T02:55:41;85972.38;;;3.59;60.73
41312;BME280;27061;41.648;24.568;2023-03-20T02:58:20;85893.56;;;3.00;60.26
41312;BME280;27061;41.648;24.568;2023-03-20T03:01:10;85986.03;;;3.57;60.24
41312;BME280;27061;41.648;24.568;2023-03-20T03:03:51;85904.47;;;2.98;60.14
41312;BME280;27061;41.648;24.568;2023-03-20T03:06:27;86063.53;;;4.24;60.37
41312;BME280;27061;41.648;24.568;2023-03-20T03:11:35;85796.41;;;2.40;59.51
41312;BME280;27061;41.648;24.568;2023-03-20T03:14:06;85776.22;;;2.13;59.69
41312;BME280;27061;41.648;24.568;2023-03-20T03:16:35;85788.47;;;2.10;59.57
41312;BME280;27061;41.648;24.568;2023-03-20T03:19:11;85961.25;;;3.47;59.59
41312;BME280;27061;41.648;24.568;2023-03-20T03:21:39;85786.66;;;2.27;59.23
41312;BME280;27061;41.648;24.568;2023-03-20T03:24:33;86069.09;;;4.30;59.71
41312;BME280;27061;41.648;24.568;2023-03-20T03:29:57;86042.88;;;4.13;59.98
41312;BME280;27061;41.648;24.568;2023-03-20T03:32:30;86069.00;;;4.22;59.70
41312;BME280;27061;41.648;24.568;2023-03-20T03:35:00;85969.50;;;3.51;59.31
41312;BME280;27061;41.648;24.568;2023-03-20T03:40:04;85972.38;;;3.59;58.94
41312;BME280;27061;41.648;24.568;2023-03-20T03:42:42;85957.66;;;3.35;58.71
41312;BME280;27061;41.648;24.568;2023-03-20T03:45:18;86044.91;;;4.13;58.63
41312;BME280;27061;41.648;24.568;2023-03-20T03:48:25;85788.41;;;2.06;58.94
41312;BME280;27061;41.648;24.568;2023-03-20T03:50:53;85948.81;;;3.38;58.67
41312;BME280;27061;41.648;24.568;2023-03-20T03:53:34;85939.75;;;3.25;59.25
41312;BME280;27061;41.648;24.568;2023-03-20T03:56:09;86001.84;;;3.65;59.29
41312;BME280;27061;41.648;24.568;2023-03-20T03:58:42;85850.59;;;2.54;58.30
41312;BME280;27061;41.648;24.568;2023-03-20T04:01:11;85940.47;;;3.28;58.70
41312;BME280;27061;41.648;24.568;2023-03-20T04:03:46;85982.63;;;3.59;58.83
41312;BME280;27061;41.648;24.568;2023-03-20T04:06:15;85961.06;;;3.33;58.13
41312;BME280;27061;41.648;24.568;2023-03-20T04:08:43;85791.28;;;2.16;58.51
41312;BME280;27061;41.648;24.568;2023-03-20T04:11:18;85908.53;;;2.92;58.60
41312;BME280;27061;41.648;24.568;2023-03-20T04:13:49;85786.44;;;2.11;58.37
41312;BME280;27061;41.648;24.568;2023-03-20T04:16:18;85822.78;;;2.22;58.70
41312;BME280;27061;41.648;24.568;2023-03-20T04:18:46;85938.28;;;3.18;59.10
41312;BME280;27061;41.648;24.568;2023-03-20T04:21:14;85879.53;;;2.71;58.86
41312;BME280;27061;41.648;24.568;2023-03-20T04:23:43;85954.09;;;3.24;57.84
41312;BME280;27061;41.648;24.568;2023-03-20T04:26:10;86064.53;;;3.95;58.38
41312;BME280;27061;41.648;24.568;2023-03-20T04:28:38;85772.97;;;1.79;57.08
41312;BME280;27061;41.648;24.568;2023-03-20T04:31:23;85919.97;;;2.81;57.59
41312;BME280;27061;41.648;24.568;2023-03-20T04:34:11;85964.28;;;3.17;58.58
41312;BME280;27061;41.648;24.568;2023-03-20T04:36:56;85975.19;;;3.15;57.75
41312;BME280;27061;41.648;24.568;2023-03-20T04:39:33;85941.59;;;3.11;56.34
41312;BME280;27061;41.648;24.568;2023-03-20T04:42:03;85948.63;;;3.24;55.59
41312;BME280;27061;41.648;24.568;2023-03-20T04:44:31;85971.41;;;3.39;56.44
41312;BME280;27061;41.648;24.568;2023-03-20T04:47:00;85764.66;;;1.71;57.23
41312;BME280;27061;41.648;24.568;2023-03-20T04:49:29;85808.97;;;2.13;57.69
41312;BME280;27061;41.648;24.568;2023-03-20T04:51:56;85953.81;;;3.04;57.62
41312;BME280;27061;41.648;24.568;2023-03-20T04:54:35;85788.19;;;1.92;58.37
41312;BME280;27061;41.648;24.568;2023-03-20T04:57:02;85871.16;;;2.61;58.39
41312;BME280;27061;41.648;24.568;2023-03-20T04:59:29;85980.88;;;3.31;58.57
41312;BME280;27061;41.648;24.568;2023-03-20T05:01:56;85909.56;;;2.69;58.40
41312;BME280;27061;41.648;24.568;2023-03-20T05:04:23;85963.44;;;3.09;58.46
41312;BME280;27061;41.648;24.568;2023-03-20T05:06:51;85822.31;;;1.93;58.65
41312;BME280;27061;41.648;24.568;2023-03-20T05:09:21;86035.47;;;3.70;58.82
41312;BME280;27061;41.648;24.568;2023-03-20T05:11:50;85955.16;;;3.03;58.22
41312;BME280;27061;41.648;24.568;2023-03-20T05:14:36;85967.84;;;3.28;58.49
41312;BME280;27061;41.648;24.568;2023-03-20T05:17:42;86101.75;;;4.12;59.31
41312;BME280;27061;41.648;24.568;2023-03-20T05:20:24;85791.59;;;1.93;60.07
41312;BME280;27061;41.648;24.568;2023-03-20T05:23:19;85886.84;;;2.58;61.14
41312;BME280;27061;41.648;24.568;2023-03-20T05:25:50;85958.28;;;3.31;61.24
41312;BME280;27061;41.648;24.568;2023-03-20T05:28:17;85981.69;;;3.42;61.80
41312;BME280;27061;41.648;24.568;2023-03-20T05:31:03;85827.03;;;2.33;62.38
41312;BME280;27061;41.648;24.568;2023-03-20T05:33:56;85988.06;;;3.57;63.46
41312;BME280;27061;41.648;24.568;2023-03-20T05:36:46;85983.03;;;3.39;64.76
41312;BME280;27061;41.648;24.568;2023-03-20T05:39:19;86003.94;;;3.66;64.93
41312;BME280;27061;41.648;24.568;2023-03-20T05:42:04;86013.91;;;3.98;65.08
41312;BME280;27061;41.648;24.568;2023-03-20T05:44:50;85986.19;;;3.72;65.69
41312;BME280;27061;41.648;24.568;2023-03-20T05:47:40;85998.81;;;3.95;65.75
41312;BME280;27061;41.648;24.568;2023-03-20T05:50:31;85808.84;;;2.49;65.27
41312;BME280;27061;41.648;24.568;2023-03-20T05:53:01;85823.75;;;2.92;65.59
41312;BME280;27061;41.648;24.568;2023-03-20T05:55:45;86086.16;;;4.85;66.00
41312;BME280;27061;41.648;24.568;2023-03-20T05:58:31;86010.31;;;4.44;65.10
41312;BME280;27061;41.648;24.568;2023-03-20T06:01:17;86098.09;;;5.12;64.54
41312;BME280;27061;41.648;24.568;2023-03-20T06:03:47;85811.75;;;3.18;63.84
41312;BME280;27061;41.648;24.568;2023-03-20T06:06:31;86079.63;;;5.19;63.51
41312;BME280;27061;41.648;24.568;2023-03-20T06:09:01;85824.97;;;3.40;63.99
41312;BME280;27061;41.648;24.568;2023-03-20T06:11:28;85836.19;;;3.60;62.00
41312;BME280;27061;41.648;24.568;2023-03-20T06:13:55;85764.47;;;3.09;62.02
41312;BME280;27061;41.648;24.568;2023-03-20T06:16:32;85987.31;;;4.77;61.56
41312;BME280;27061;41.648;24.568;2023-03-20T06:18:59;85862.00;;;4.11;63.61
41312;BME280;27061;41.648;24.568;2023-03-20T06:21:26;85822.28;;;4.14;62.95
41312;BME280;27061;41.648;24.568;2023-03-20T06:23:54;85823.69;;;4.15;61.59
41312;BME280;27061;41.648;24.568;2023-03-20T06:26:22;86001.78;;;5.70;61.87
41312;BME280;27061;41.648;24.568;2023-03-20T06:28:59;85983.81;;;5.53;61.86
41312;BME280;27061;41.648;24.568;2023-03-20T06:31:26;85840.59;;;4.76;57.06
41312;BME280;27061;41.648;24.568;2023-03-20T06:33:54;85990.94;;;5.93;59.63
41312;BME280;27061;41.648;24.568;2023-03-20T06:36:21;85997.84;;;6.00;59.52
41312;BME280;27061;41.648;24.568;2023-03-20T06:38:55;86089.66;;;6.91;59.46
41312;BME280;27061;41.648;24.568;2023-03-20T06:41:24;86000.75;;;6.32;60.00
41312;BME280;27061;41.648;24.568;2023-03-20T06:44:04;85898.06;;;5.67;60.48
41312;BME280;27061;41.648;24.568;2023-03-20T06:46:52;85998.78;;;6.61;60.22
41312;BME280;27061;41.648;24.568;2023-03-20T06:49:19;85880.22;;;5.74;61.17
41312;BME280;27061;41.648;24.568;2023-03-20T06:51:46;86002.97;;;6.88;59.47
41312;BME280;27061;41.648;24.568;2023-03-20T06:54:21;85845.97;;;5.89;53.57
41312;BME280;27061;41.648;24.568;2023-03-20T06:56:50;85829.50;;;5.89;56.41
41312;BME280;27061;41.648;24.568;2023-03-20T06:59:20;85936.22;;;6.76;55.48
41312;BME280;27061;41.648;24.568;2023-03-20T07:01:47;86065.72;;;7.95;56.02
41312;BME280;27061;41.648;24.568;2023-03-20T07:04:16;86001.00;;;7.52;56.15
41312;BME280;27061;41.648;24.568;2023-03-20T07:06:48;85993.41;;;7.56;55.90
41312;BME280;27061;41.648;24.568;2023-03-20T07:09:15;85835.75;;;6.46;55.14
41312;BME280;27061;41.648;24.568;2023-03-20T07:11:43;85819.28;;;6.40;56.26
41312;BME280;27061;41.648;24.568;2023-03-20T07:14:11;86033.28;;;8.16;54.67
41312;BME280;27061;41.648;24.568;2023-03-20T07:17:01;85820.66;;;6.78;55.46
41312;BME280;27061;41.648;24.568;2023-03-20T07:19:28;85853.66;;;7.04;56.22
41312;BME280;27061;41.648;24.568;2023-03-20T07:21:59;85839.91;;;7.06;56.17
41312;BME280;27061;41.648;24.568;2023-03-20T07:24:35;85861.22;;;7.30;55.99
41312;BME280;27061;41.648;24.568;2023-03-20T07:27:03;85861.88;;;7.47;54.53
41312;BME280;27061;41.648;24.568;2023-03-20T07:29:32;85860.47;;;7.54;54.49
41312;BME280;27061;41.648;24.568;2023-03-20T07:31:59;85990.38;;;8.78;53.20
41312;BME280;27061;41.648;24.568;2023-03-20T07:34:32;85837.06;;;7.61;54.13
41312;BME280;27061;41.648;24.568;2023-03-20T07:37:00;86001.28;;;9.02;53.58
41312;BME280;27061;41.648;24.568;2023-03-20T07:39:27;85872.00;;;8.09;53.09
41312;BME280;27061;41.648;24.568;2023-03-20T07:42:11;85911.16;;;8.52;52.27
41312;BME280;27061;41.648;24.568;2023-03-20T07:44:49;85861.63;;;8.26;51.37
41312;BME280;27061;41.648;24.568;2023-03-20T07:47:17;85985.22;;;9.33;52.62
41312;BME280;27061;41.648;24.568;2023-03-20T07:49:44;85996.13;;;9.60;52.71
41312;BME280;27061;41.648;24.568;2023-03-20T07:52:12;85855.25;;;8.56;52.88
41312;BME280;27061;41.648;24.568;2023-03-20T07:54:39;85898.47;;;8.96;53.02
41312;BME280;27061;41.648;24.568;2023-03-20T07:57:07;85855.16;;;8.72;42.66
41312;BME280;27061;41.648;24.568;2023-03-20T07:59:34;85848.88;;;8.84;46.78
41312;BME280;27061;41.648;24.568;2023-03-20T08:02:01;85850.13;;;9.01;47.31
41312;BME280;27061;41.648;24.568;2023-03-20T08:04:29;86007.88;;;10.42;47.11
41312;BME280;27061;41.648;24.568;2023-03-20T08:06:56;85882.91;;;9.47;40.29
41312;BME280;27061;41.648;24.568;2023-03-20T08:09:23;85838.09;;;9.35;37.14
41312;BME280;27061;41.648;24.568;2023-03-20T08:11:50;85879.91;;;9.74;40.12
41312;BME280;27061;41.648;24.568;2023-03-20T08:14:18;85997.84;;;10.75;42.76
41312;BME280;27061;41.648;24.568;2023-03-20T08:16:45;85994.28;;;10.83;37.76
41312;BME280;27061;41.648;24.568;2023-03-20T08:19:12;85842.56;;;9.75;38.50
41312;BME280;27061;41.648;24.568;2023-03-20T08:21:39;85928.72;;;10.67;42.72
41312;BME280;27061;41.648;24.568;2023-03-20T08:24:06;85884.69;;;10.45;44.93
41312;BME280;27061;41.648;24.568;2023-03-20T08:26:35;85861.28;;;10.36;43.63
41312;BME280;27061;41.648;24.568;2023-03-20T08:29:03;85994.09;;;11.54;45.39
41312;BME280;27061;41.648;24.568;2023-03-20T08:31:30;85886.94;;;10.85;45.59
41312;BME280;27061;41.648;24.568;2023-03-20T08:33:57;85862.75;;;10.82;44.78
41312;BME280;27061;41.648;24.568;2023-03-20T08:36:24;86010.09;;;11.99;45.82
41312;BME280;27061;41.648;24.568;2023-03-20T08:38:51;85841.06;;;10.98;45.52
41312;BME280;27061;41.648;24.568;2023-03-20T08:41:19;85993.88;;;12.18;44.86
41312;BME280;27061;41.648;24.568;2023-03-20T08:43:46;85842.13;;;11.22;46.69
41312;BME280;27061;41.648;24.568;2023-03-20T08:46:13;85827.50;;;11.25;38.49
41312;BME280;27061;41.648;24.568;2023-03-20T08:48:41;85977.25;;;12.57;41.84
41312;BME280;27061;41.648;24.568;2023-03-20T08:51:09;85860.19;;;11.62;42.15
41312;BME280;27061;41.648;24.568;2023-03-20T08:53:36;85957.75;;;12.59;39.31
41312;BME280;27061;41.648;24.568;2023-03-20T08:56:04;86032.16;;;13.30;40.07
41312;BME280;27061;41.648;24.568;2023-03-20T08:58:31;86062.72;;;13.67;39.76
41312;BME280;27061;41.648;24.568;2023-03-20T09:01:05;85857.78;;;12.22;39.71
41312;BME280;27061;41.648;24.568;2023-03-20T09:03:35;85883.06;;;12.42;37.61
41312;BME280;27061;41.648;24.568;2023-03-20T09:06:06;85911.41;;;12.86;38.70
41312;BME280;27061;41.648;24.568;2023-03-20T09:08:34;85886.69;;;12.72;33.37
41312;BME280;27061;41.648;24.568;2023-03-20T09:11:02;85860.47;;;12.63;31.21
41312;BME280;27061;41.648;24.568;2023-03-20T09:13:30;85912.22;;;13.15;35.45
41312;BME280;27061;41.648;24.568;2023-03-20T09:15:57;85991.44;;;13.82;30.63
41312;BME280;27061;41.648;24.568;2023-03-20T09:18:24;85975.38;;;13.87;28.75
41312;BME280;27061;41.648;24.568;2023-03-20T09:20:51;85988.50;;;13.90;29.35
41312;BME280;27061;41.648;24.568;2023-03-20T09:23:19;85865.13;;;13.07;29.94
41312;BME280;27061;41.648;24.568;2023-03-20T09:25:46;85875.56;;;13.07;30.89
41312;BME280;27061;41.648;24.568;2023-03-20T09:28:14;85872.09;;;13.06;31.14
41312;BME280;27061;41.648;24.568;2023-03-20T09:30:41;85980.63;;;13.99;31.14
41312;BME280;27061;41.648;24.568;2023-03-20T09:33:09;85860.13;;;13.14;32.58
41312;BME280;27061;41.648;24.568;2023-03-20T09:35:37;85882.78;;;13.27;27.67
41312;BME280;27061;41.648;24.568;2023-03-20T09:38:04;85848.25;;;13.17;30.83
41312;BME280;27061;41.648;24.568;2023-03-20T09:40:53;85842.09;;;13.13;27.46
41312;BME280;27061;41.648;24.568;2023-03-20T09:43:25;86064.94;;;14.88;28.93
41312;BME280;27061;41.648;24.568;2023-03-20T09:49:14;86055.28;;;15.12;31.96
41312;BME280;27061;41.648;24.568;2023-03-20T09:51:50;86064.16;;;15.19;29.64
41312;BME280;27061;41.648;24.568;2023-03-20T09:54:35;86054.91;;;15.26;31.61
41312;BME280;27061;41.648;24.568;2023-03-20T09:57:23;85888.38;;;14.17;31.62
41312;BME280;27061;41.648;24.568;2023-03-20T09:59:58;85885.41;;;14.23;32.29
41312;BME280;27061;41.648;24.568;2023-03-20T10:02:49;85870.06;;;14.24;29.37
41312;BME280;27061;41.648;24.568;2023-03-20T10:05:28;85921.59;;;14.52;25.79
41312;BME280;27061;41.648;24.568;2023-03-20T10:08:03;85981.94;;;14.91;25.33
41312;BME280;27061;41.648;24.568;2023-03-20T10:13:12;85965.41;;;15.10;30.22
41312;BME280;27061;41.648;24.568;2023-03-20T10:15:56;85828.06;;;14.08;27.53
41312;BME280;27061;41.648;24.568;2023-03-20T10:18:28;85923.00;;;14.80;28.39
41312;BME280;27061;41.648;24.568;2023-03-20T10:21:00;85912.41;;;14.85;28.18
41312;BME280;27061;41.648;24.568;2023-03-20T10:23:49;85834.34;;;14.33;27.86
41312;BME280;27061;41.648;24.568;2023-03-20T10:26:22;85950.38;;;15.25;29.79
41312;BME280;27061;41.648;24.568;2023-03-20T10:28:57;85807.75;;;14.40;32.37
41312;BME280;27061;41.648;24.568;2023-03-20T10:31:42;86027.78;;;16.24;33.98
41312;BME280;27061;41.648;24.568;2023-03-20T10:37:09;86028.75;;;16.39;32.82
41312;BME280;27061;41.648;24.568;2023-03-20T10:42:56;85856.59;;;15.36;31.12
41312;BME280;27061;41.648;24.568;2023-03-20T10:45:33;85779.72;;;14.96;31.12
41312;BME280;27061;41.648;24.568;2023-03-20T10:48:06;85848.84;;;15.64;32.26
41312;BME280;27061;41.648;24.568;2023-03-20T10:50:43;86000.56;;;16.70;30.90
41312;BME280;27061;41.648;24.568;2023-03-20T10:59:03;85893.19;;;16.20;28.02
41312;BME280;27061;41.648;24.568;2023-03-20T11:01:32;85992.28;;;17.10;30.21
41312;BME280;27061;41.648;24.568;2023-03-20T11:04:01;85939.88;;;16.67;26.84
41312;BME280;27061;41.648;24.568;2023-03-20T11:06:37;85920.31;;;16.44;27.15
41312;BME280;27061;41.648;24.568;2023-03-20T11:09:17;85957.97;;;16.91;27.73
41312;BME280;27061;41.648;24.568;2023-03-20T11:11:46;85957.75;;;16.97;29.97
41312;BME280;27061;41.648;24.568;2023-03-20T11:14:22;85848.22;;;16.28;30.90
41312;BME280;27061;41.648;24.568;2023-03-20T11:16:52;85895.31;;;16.83;27.19
41312;BME280;27061;41.648;24.568;2023-03-20T11:19:21;85916.69;;;17.12;30.79
41312;BME280;27061;41.648;24.568;2023-03-20T11:21:57;85803.38;;;16.32;25.67
41312;BME280;27061;41.648;24.568;2023-03-20T11:24:27;85976.44;;;17.65;25.65
41312;BME280;27061;41.648;24.568;2023-03-20T11:27:13;85975.69;;;17.66;27.10
41312;BME280;27061;41.648;24.568;2023-03-20T11:29:42;85892.00;;;16.98;26.93
41312;BME280;27061;41.648;24.568;2023-03-20T11:34:40;85964.13;;;17.76;29.24
41312;BME280;27061;41.648;24.568;2023-03-20T11:37:42;85909.66;;;17.52;27.75
41312;BME280;27061;41.648;24.568;2023-03-20T11:40:15;85956.56;;;17.91;28.67
41312;BME280;27061;41.648;24.568;2023-03-20T11:43:12;85955.28;;;18.07;28.46
41312;BME280;27061;41.648;24.568;2023-03-20T11:45:43;85728.28;;;16.42;29.16
41312;BME280;27061;41.648;24.568;2023-03-20T11:48:24;85840.44;;;17.32;25.36
41312;BME280;27061;41.648;24.568;2023-03-20T11:51:14;85954.09;;;18.21;24.37
41312;BME280;27061;41.648;24.568;2023-03-20T11:56:22;85941.28;;;18.07;24.84
41312;BME280;27061;41.648;24.568;2023-03-20T11:59:01;85950.50;;;18.22;26.92
41312;BME280;27061;41.648;24.568;2023-03-20T12:01:38;85747.28;;;16.59;25.01
41312;BME280;27061;41.648;24.568;2023-03-20T12:04:13;85802.31;;;17.04;26.35
41312;BME280;27061;41.648;24.568;2023-03-20T12:07:03;85841.00;;;17.37;25.97
41312;BME280;27061;41.648;24.568;2023-03-20T12:15:16;85941.81;;;18.31;23.88
41312;BME280;27061;41.648;24.568;2023-03-20T12:21:18;85949.53;;;18.30;24.09
41312;BME280;27061;41.648;24.568;2023-03-20T12:24:03;85742.44;;;16.57;24.13
41312;BME280;27061;41.648;24.568;2023-03-20T12:26:45;85728.16;;;16.46;24.10
41312;BME280;27061;41.648;24.568;2023-03-20T12:29:29;85841.50;;;17.41;24.76
41312;BME280;27061;41.648;24.568;2023-03-20T12:32:02;85950.22;;;18.31;24.30
41312;BME280;27061;41.648;24.568;2023-03-20T12:34:37;85866.75;;;17.79;27.58
41312;BME280;27061;41.648;24.568;2023-03-20T12:37:10;85935.75;;;18.43;27.38
41312;BME280;27061;41.648;24.568;2023-03-20T12:39:46;85859.22;;;17.92;27.10
41312;BME280;27061;41.648;24.568;2023-03-20T12:45:16;85845.22;;;17.92;25.32
41312;BME280;27061;41.648;24.568;2023-03-20T12:51:09;85811.19;;;17.85;25.71
41312;BME280;27061;41.648;24.568;2023-03-20T12:54:06;85923.94;;;18.76;23.39
41312;BME280;27061;41.648;24.568;2023-03-20T12:59:23;85865.91;;;18.37;21.39
41312;BME280;27061;41.648;24.568;2023-03-20T13:04:54;85831.34;;;18.07;25.45
41312;BME280;27061;41.648;24.568;2023-03-20T13:12:41;85916.25;;;19.10;25.18
41312;BME280;27061;41.648;24.568;2023-03-20T13:15:33;85902.06;;;19.14;23.15
41312;BME280;27061;41.648;24.568;2023-03-20T13:20:51;85801.53;;;18.51;23.65
41312;BME280;27061;41.648;24.568;2023-03-20T13:23:55;85920.56;;;19.40;22.24
41312;BME280;27061;41.648;24.568;2023-03-20T13:26:42;85879.75;;;19.10;23.27
41312;BME280;27061;41.648;24.568;2023-03-20T13:29:25;85912.16;;;19.40;21.70
41312;BME280;27061;41.648;24.568;2023-03-20T13:37:18;85909.53;;;19.53;23.85
41312;BME280;27061;41.648;24.568;2023-03-20T13:43:07;85903.06;;;19.39;24.27
41312;BME280;27061;41.648;24.568;2023-03-20T13:45:40;85880.38;;;19.12;23.91
41312;BME280;27061;41.648;24.568;2023-03-20T13:48:21;85900.59;;;19.31;23.46
41312;BME280;27061;41.648;24.568;2023-03-20T13:56:46;85886.56;;;19.31;24.35
41312;BME280;27061;41.648;24.568;2023-03-20T14:01:50;85890.81;;;19.30;26.16
41312;BME280;27061;41.648;24.568;2023-03-20T14:04:23;85859.69;;;19.20;23.43
41312;BME280;27061;41.648;24.568;2023-03-20T14:06:54;85880.59;;;19.39;22.76
41312;BME280;27061;41.648;24.568;2023-03-20T14:09:31;85879.41;;;19.18;22.74
41312;BME280;27061;41.648;24.568;2023-03-20T14:12:13;85858.19;;;19.06;24.33
41312;BME280;27061;41.648;24.568;2023-03-20T14:14:45;85880.53;;;19.25;25.35
41312;BME280;27061;41.648;24.568;2023-03-20T14:17:24;85883.00;;;19.16;25.04
41312;BME280;27061;41.648;24.568;2023-03-20T14:19:52;85891.69;;;19.27;24.77
41312;BME280;27061;41.648;24.568;2023-03-20T14:22:25;85886.41;;;19.19;22.50
41312;BME280;27061;41.648;24.568;2023-03-20T14:24:58;85821.28;;;18.66;23.35
41312;BME280;27061;41.648;24.568;2023-03-20T14:27:28;85880.97;;;19.15;24.64
41312;BME280;27061;41.648;24.568;2023-03-20T14:32:59;85872.47;;;19.17;23.63
41312;BME280;27061;41.648;24.568;2023-03-20T14:35:27;85843.22;;;18.78;23.24
41312;BME280;27061;41.648;24.568;2023-03-20T14:46:23;85870.41;;;19.15;25.02
41312;BME280;27061;41.648;24.568;2023-03-20T14:48:54;85867.03;;;19.13;22.88
41312;BME280;27061;41.648;24.568;2023-03-20T14:51:30;85866.94;;;19.15;22.60
41312;BME280;27061;41.648;24.568;2023-03-20T14:54:26;85868.72;;;19.06;22.85
41312;BME280;27061;41.648;24.568;2023-03-20T14:56:54;85840.66;;;18.72;22.06
41312;BME280;27061;41.648;24.568;2023-03-20T14:59:23;85856.06;;;18.73;22.35
41312;BME280;27061;41.648;24.568;2023-03-20T15:01:58;85868.53;;;18.76;22.97
41312;BME280;27061;41.648;24.568;2023-03-20T15:04:39;85856.28;;;18.67;23.37
41312;BME280;27061;41.648;24.568;2023-03-20T15:07:23;85862.75;;;18.63;23.12
41312;BME280;27061;41.648;24.568;2023-03-20T15:09:54;85826.31;;;18.28;23.92
41312;BME280;27061;41.648;24.568;2023-03-20T15:12:27;85867.13;;;18.42;27.72
41312;BME280;27061;41.648;24.568;2023-03-20T15:14:58;85868.47;;;18.43;28.38
41312;BME280;27061;41.648;24.568;2023-03-20T15:17:45;85847.09;;;18.16;27.69